createdAt,value
2019-05-28T00:00:04.820Z,82.30
2019-05-28T00:02:39.329Z,82.40
2019-05-28T00:05:14.890Z,81.80
2019-05-28T00:07:50.535Z,81.60
2019-05-28T00:10:27.337Z,81.20
2019-05-28T00:13:01.831Z,81.10
2019-05-28T00:15:36.337Z,81.30
2019-05-28T00:18:10.337Z,81.40
2019-05-28T00:20:47.546Z,81.60
2019-05-28T00:23:24.832Z,81.70
2019-05-28T00:26:00.890Z,82.10
2019-05-28T00:28:35.345Z,82.10
2019-05-28T00:31:10.138Z,82.10
2019-05-28T00:33:48.038Z,82.00
2019-05-28T00:36:24.336Z,82.10
2019-05-28T00:38:59.361Z,82.60
2019-05-28T00:41:34.982Z,82.30
2019-05-28T00:44:12.346Z,82.50
2019-05-28T00:46:47.919Z,83.20
2019-05-28T00:49:23.773Z,84.00
2019-05-28T00:52:02.908Z,85.00
2019-05-28T00:54:38.371Z,85.10
2019-05-28T00:57:15.838Z,85.60
2019-05-28T00:59:55.350Z,85.80
2019-05-28T01:02:32.549Z,85.90
2019-05-28T01:05:07.363Z,85.80
2019-05-28T01:07:43.960Z,85.30
2019-05-28T01:10:20.351Z,85.40
2019-05-28T01:12:57.914Z,84.70
2019-05-28T01:15:32.391Z,85.10
2019-05-28T01:18:09.823Z,84.40
2019-05-28T01:20:44.862Z,84.70
2019-05-28T01:23:26.037Z,85.00
2019-05-28T01:26:06.194Z,84.70
2019-05-28T01:28:42.351Z,84.60
2019-05-28T01:31:17.356Z,84.40
2019-05-28T01:33:53.751Z,84.70
2019-05-28T01:36:38.816Z,84.10
2019-05-28T01:39:13.850Z,84.30
2019-05-28T01:41:50.352Z,84.20
2019-05-28T01:44:26.174Z,84.10
2019-05-28T01:47:07.382Z,84.20
2019-05-28T01:49:42.789Z,84.10
2019-05-28T01:52:20.928Z,84.10
2019-05-28T01:54:58.355Z,83.90
2019-05-28T01:57:35.908Z,83.90
2019-05-28T02:00:20.953Z,83.90
2019-05-28T02:02:59.871Z,83.90
2019-05-28T02:05:35.929Z,83.90
2019-05-28T02:08:18.138Z,84.10
2019-05-28T02:10:52.375Z,84.20
2019-05-28T02:13:31.065Z,84.50
2019-05-28T02:16:07.363Z,84.50
2019-05-28T02:18:43.999Z,84.80
2019-05-28T02:21:20.876Z,85.20
2019-05-28T02:23:55.380Z,85.00
2019-05-28T02:26:31.379Z,85.10
2019-05-28T02:29:10.366Z,85.10
2019-05-28T02:31:45.365Z,85.10
2019-05-28T02:34:26.363Z,85.40
2019-05-28T02:37:00.362Z,86.30
2019-05-28T02:39:37.788Z,85.90
2019-05-28T02:42:14.047Z,85.80
2019-05-28T02:44:54.364Z,86.30
2019-05-28T02:47:32.380Z,86.10
2019-05-28T02:50:15.120Z,85.90
2019-05-28T02:52:54.251Z,85.90
2019-05-28T02:55:36.379Z,85.80
2019-05-28T02:58:16.026Z,85.60
2019-05-28T03:00:55.944Z,85.60
2019-05-28T03:03:34.054Z,85.80
2019-05-28T03:06:15.025Z,85.80
2019-05-28T03:08:59.882Z,85.70
2019-05-28T03:11:34.379Z,85.90
2019-05-28T03:14:12.849Z,86.00
2019-05-28T03:16:52.393Z,86.00
2019-05-28T03:19:30.378Z,85.90
2019-05-28T03:22:06.929Z,85.80
2019-05-28T03:24:44.216Z,85.90
2019-05-28T03:27:22.935Z,85.70
2019-05-28T03:30:02.679Z,85.60
2019-05-28T03:32:39.969Z,85.70
2019-05-28T03:35:20.392Z,85.80
2019-05-28T03:37:57.001Z,85.90
2019-05-28T03:40:53.529Z,85.90
2019-05-28T03:46:55.005Z,86.00
2019-05-28T03:49:32.907Z,85.70
2019-05-28T03:52:06.928Z,85.60
2019-05-28T03:54:41.400Z,85.30
2019-05-28T03:57:16.779Z,85.30
2019-05-28T03:59:57.521Z,85.30
2019-05-28T04:02:31.966Z,85.40
2019-05-28T04:05:07.000Z,85.50
2019-05-28T04:07:46.131Z,85.70
2019-05-28T04:10:25.055Z,85.90
2019-05-28T04:13:03.833Z,85.40
2019-05-28T04:15:43.722Z,85.50
2019-05-28T04:18:20.805Z,85.60
2019-05-28T04:20:56.865Z,85.60
2019-05-28T04:27:15.129Z,85.20
2019-05-28T04:29:51.009Z,85.40
2019-05-28T04:32:39.957Z,85.50
2019-05-28T04:35:08.010Z,85.60
2019-05-28T04:37:48.782Z,85.40
2019-05-28T04:44:17.416Z,85.20
2019-05-28T04:50:33.408Z,85.20
2019-05-28T04:53:08.407Z,85.40
2019-05-28T04:55:45.002Z,85.50
2019-05-28T05:02:05.416Z,85.50
2019-05-28T05:08:21.943Z,84.80
2019-05-28T05:11:07.015Z,84.60
2019-05-28T05:13:46.758Z,84.80
2019-05-28T05:16:40.241Z,85.10
2019-05-28T05:19:18.945Z,85.10
2019-05-28T05:25:13.052Z,84.70
2019-05-28T05:27:46.638Z,84.90
2019-05-28T05:34:01.741Z,85.20
2019-05-28T05:40:11.909Z,84.70
2019-05-28T05:46:26.081Z,84.70
2019-05-28T05:49:10.948Z,84.30
2019-05-28T05:55:19.038Z,83.50
2019-05-28T05:58:01.373Z,83.80
2019-05-28T06:00:34.434Z,83.90
2019-05-28T06:03:14.921Z,83.60
2019-05-28T06:05:53.465Z,83.30
2019-05-28T06:08:36.413Z,83.20
2019-05-28T06:11:18.048Z,83.50
2019-05-28T06:14:07.003Z,82.80
2019-05-28T06:16:56.770Z,82.70
2019-05-28T06:23:17.712Z,83.10
2019-05-28T06:25:55.322Z,83.40
2019-05-28T06:28:47.564Z,83.10
2019-05-28T06:31:27.822Z,82.70
2019-05-28T06:34:04.504Z,82.90
2019-05-28T06:36:41.962Z,82.70
2019-05-28T06:42:52.488Z,82.50
2019-05-28T06:55:01.940Z,82.40
2019-05-28T06:57:40.056Z,82.00
2019-05-28T07:00:24.300Z,81.70
2019-05-28T07:06:14.746Z,81.30
2019-05-28T07:12:07.990Z,81.20
2019-05-28T07:15:01.062Z,81.00
2019-05-28T07:17:41.409Z,81.50
2019-05-28T07:23:41.498Z,81.60
2019-05-28T07:29:51.452Z,81.30
2019-05-28T07:35:57.500Z,80.80
2019-05-28T07:38:35.518Z,80.70
2019-05-28T07:41:12.475Z,80.00
2019-05-28T07:47:30.946Z,80.50
2019-05-28T07:50:08.675Z,80.10
2019-05-28T07:52:47.978Z,80.80
2019-05-28T07:55:25.057Z,80.70
2019-05-28T07:58:01.323Z,80.50
2019-05-28T08:00:47.005Z,79.60
2019-05-28T08:03:22.055Z,80.20
2019-05-28T08:06:00.141Z,82.70
2019-05-28T08:12:03.535Z,83.40
2019-05-28T08:14:38.083Z,84.30
2019-05-28T08:17:13.730Z,85.40
2019-05-28T08:23:16.843Z,87.10
2019-05-28T08:29:16.060Z,89.10
2019-05-28T08:31:51.536Z,90.50
2019-05-28T08:34:27.041Z,91.30
2019-05-28T08:37:06.272Z,91.10
2019-05-28T08:39:43.366Z,91.30
2019-05-28T08:45:46.884Z,91.90
2019-05-28T08:48:22.575Z,91.20
2019-05-28T08:50:56.948Z,91.20
2019-05-28T08:53:35.057Z,91.60
2019-05-28T08:56:11.147Z,91.90
2019-05-28T08:58:45.561Z,91.90
2019-05-28T09:01:25.075Z,92.00
2019-05-28T09:04:01.332Z,91.60
2019-05-28T09:06:38.413Z,90.30
2019-05-28T09:09:12.551Z,90.70
2019-05-28T09:11:48.553Z,91.70
2019-05-28T09:14:24.587Z,90.50
2019-05-28T09:20:39.565Z,91.20
2019-05-28T09:23:14.969Z,91.20
2019-05-28T09:25:49.390Z,91.40
2019-05-28T09:32:05.020Z,91.10
2019-05-28T09:38:22.030Z,91.70
2019-05-28T09:40:58.559Z,91.60
2019-05-28T09:43:33.564Z,91.50
2019-05-28T09:46:12.251Z,90.20
2019-05-28T09:48:47.566Z,90.60
2019-05-28T09:51:24.169Z,90.30
2019-05-28T09:57:27.593Z,90.20
2019-05-28T10:00:03.124Z,90.70
2019-05-28T10:06:16.253Z,90.30
2019-05-28T10:12:22.451Z,90.70
2019-05-28T10:14:57.281Z,91.70
2019-05-28T10:17:32.112Z,91.20
2019-05-28T10:23:49.152Z,90.70
2019-05-28T10:30:06.182Z,90.90
2019-05-28T10:36:35.383Z,89.30
2019-05-28T10:42:26.584Z,89.20
2019-05-28T10:48:42.139Z,90.30
2019-05-28T10:51:17.992Z,89.00
2019-05-28T10:53:52.001Z,88.90
2019-05-28T10:56:28.265Z,89.00
2019-05-28T10:59:04.114Z,88.00
2019-05-28T11:05:11.118Z,87.10
2019-05-28T11:07:46.594Z,88.60
2019-05-28T11:10:24.195Z,89.00
2019-05-28T11:12:57.587Z,87.90
2019-05-28T11:15:32.070Z,87.30
2019-05-28T11:18:08.583Z,88.90
2019-05-28T11:20:43.165Z,89.40
2019-05-28T11:23:18.818Z,88.00
2019-05-28T11:25:56.617Z,89.10
2019-05-28T11:28:31.595Z,87.90
2019-05-28T11:31:10.054Z,88.20
2019-05-28T11:33:47.139Z,88.10
2019-05-28T11:36:22.611Z,86.50
2019-05-28T11:38:58.231Z,86.80
2019-05-28T11:41:42.194Z,87.30
2019-05-28T11:44:12.215Z,87.20
2019-05-28T11:46:52.606Z,88.00
2019-05-28T11:55:15.603Z,87.50
2019-05-28T11:57:49.132Z,85.90
2019-05-28T12:00:24.607Z,86.90
2019-05-28T12:02:59.200Z,87.00
2019-05-28T12:09:21.155Z,85.70
2019-05-28T12:15:24.057Z,89.00
2019-05-28T12:21:13.597Z,86.90
2019-05-28T12:27:18.634Z,85.80
2019-05-28T12:33:23.637Z,86.60
2019-05-28T12:36:21.124Z,84.80
2019-05-28T12:38:59.043Z,85.50
2019-05-28T12:42:00.784Z,84.40
2019-05-28T12:44:41.474Z,86.10
2019-05-28T12:50:45.627Z,85.40
2019-05-28T12:56:26.162Z,85.60
2019-05-28T13:02:29.633Z,83.40
2019-05-28T13:05:03.101Z,84.90
2019-05-28T13:11:08.452Z,85.00
2019-05-28T13:13:43.066Z,85.50
2019-05-28T13:19:45.633Z,85.00
2019-05-28T13:22:20.186Z,85.80
2019-05-28T13:28:35.662Z,85.40
2019-05-28T13:31:09.675Z,84.60
2019-05-28T13:33:44.699Z,85.00
2019-05-28T13:36:18.703Z,84.20
2019-05-28T13:42:25.708Z,85.30
2019-05-28T13:48:18.512Z,84.20
2019-05-28T13:54:00.395Z,83.60
2019-05-28T13:59:58.406Z,84.30
2019-05-28T14:08:47.369Z,82.90
2019-05-28T14:11:23.577Z,82.70
2019-05-28T14:13:57.859Z,82.40
2019-05-28T14:16:32.855Z,83.10
2019-05-28T14:19:07.890Z,81.70
2019-05-28T14:27:44.357Z,83.20
2019-05-28T14:30:20.416Z,82.50
2019-05-28T14:32:57.503Z,82.80
2019-05-28T14:35:34.580Z,82.80
2019-05-28T14:41:39.530Z,81.90
2019-05-28T14:47:57.799Z,82.00
2019-05-28T14:50:34.469Z,82.40
2019-05-28T14:53:09.968Z,81.70
2019-05-28T14:55:46.383Z,82.00
2019-05-28T14:58:21.972Z,82.10
2019-05-28T15:00:58.704Z,82.40
2019-05-28T15:03:36.397Z,82.10
2019-05-28T15:09:40.610Z,82.90
2019-05-28T15:12:14.979Z,81.90
2019-05-28T15:18:31.372Z,82.90
2019-05-28T15:24:49.959Z,83.50
2019-05-28T15:27:26.721Z,83.30
2019-05-28T15:30:02.573Z,83.20
2019-05-28T15:32:37.402Z,82.50
2019-05-28T15:35:15.505Z,82.70
2019-05-28T15:37:52.586Z,82.80
2019-05-28T15:40:33.555Z,82.60
2019-05-28T15:43:20.990Z,83.40
2019-05-28T15:46:09.989Z,84.80
2019-05-28T15:48:43.989Z,85.30
2019-05-28T15:51:20.321Z,85.80
2019-05-28T15:53:56.713Z,85.10
2019-05-28T15:56:43.223Z,85.50
2019-05-28T15:59:21.603Z,86.00
2019-05-28T16:01:57.450Z,86.30
2019-05-28T16:04:31.993Z,87.20
2019-05-28T16:07:08.542Z,87.30
2019-05-28T16:09:55.503Z,86.70
2019-05-28T16:12:23.527Z,87.80
2019-05-28T16:15:00.406Z,86.90
2019-05-28T16:17:40.576Z,87.80
2019-05-28T16:20:20.113Z,88.20
2019-05-28T16:22:54.991Z,88.20
2019-05-28T16:25:35.900Z,88.20
2019-05-28T16:28:21.583Z,88.10
2019-05-28T16:31:11.676Z,88.40
2019-05-28T16:33:38.405Z,87.10
2019-05-28T16:36:14.463Z,87.40
2019-05-28T16:39:00.020Z,87.30
2019-05-28T16:41:41.530Z,87.30
2019-05-28T16:44:35.031Z,86.40
2019-05-28T16:47:18.773Z,87.00
2019-05-28T16:49:56.530Z,86.80
2019-05-28T16:52:33.618Z,87.00
2019-05-28T16:55:13.579Z,87.40
2019-05-28T16:57:54.329Z,86.60
2019-05-28T17:00:32.660Z,86.70
2019-05-28T17:03:10.042Z,87.00
2019-05-28T17:05:45.572Z,86.30
2019-05-28T17:08:21.426Z,86.80
2019-05-28T17:10:58.522Z,86.30
2019-05-28T17:13:36.090Z,86.30
2019-05-28T17:16:13.010Z,86.30
2019-05-28T17:19:02.553Z,86.00
2019-05-28T17:21:39.002Z,85.50
2019-05-28T17:24:13.542Z,85.70
2019-05-28T17:26:49.015Z,84.90
2019-05-28T17:29:24.633Z,84.60
2019-05-28T17:32:00.483Z,84.80
2019-05-28T17:34:36.008Z,84.30
2019-05-28T17:37:11.574Z,84.40
2019-05-28T17:39:50.503Z,84.20
2019-05-28T17:42:29.220Z,84.40
2019-05-28T17:45:06.517Z,83.40
2019-05-28T17:47:44.216Z,83.20
2019-05-28T17:50:19.447Z,82.40
2019-05-28T17:52:57.581Z,82.30
2019-05-28T17:55:33.023Z,82.30
2019-05-28T17:58:13.553Z,81.10
2019-05-28T18:00:48.016Z,81.30
2019-05-28T18:03:22.020Z,82.40
2019-05-28T18:05:56.826Z,82.10
2019-05-28T18:08:33.007Z,81.60
2019-05-28T18:11:08.012Z,81.80
2019-05-28T18:13:44.780Z,82.30
2019-05-28T18:16:19.025Z,82.50
2019-05-28T18:19:00.435Z,81.60
2019-05-28T18:21:43.207Z,82.10
2019-05-28T18:24:18.635Z,82.00
2019-05-28T18:26:57.558Z,81.90
2019-05-28T18:29:33.031Z,82.10
2019-05-28T18:32:19.027Z,82.50
2019-05-28T18:34:53.017Z,82.10
2019-05-28T18:37:29.570Z,82.00
2019-05-28T18:40:05.422Z,83.60
2019-05-28T18:42:41.495Z,82.50
2019-05-28T18:48:49.713Z,82.40
2019-05-28T18:51:25.017Z,81.90
2019-05-28T18:57:29.493Z,82.10
2019-05-28T19:03:34.447Z,82.30
2019-05-28T19:09:39.028Z,83.30
2019-05-28T19:12:14.056Z,83.00
2019-05-28T19:15:01.055Z,82.80
2019-05-28T19:21:05.890Z,83.10
2019-05-28T19:23:40.517Z,83.10
2019-05-28T19:29:58.039Z,83.30
2019-05-28T19:32:32.993Z,83.60
2019-05-28T19:35:08.646Z,84.20
2019-05-28T19:37:45.927Z,84.30
2019-05-28T19:40:26.697Z,84.30
2019-05-28T19:46:21.819Z,84.40
2019-05-28T19:49:01.359Z,84.20
2019-05-28T19:51:36.600Z,84.50
2019-05-28T19:54:27.629Z,84.50
2019-05-28T19:57:04.279Z,84.20
2019-05-28T20:03:25.068Z,84.10
2019-05-28T20:06:00.063Z,84.30
2019-05-28T20:08:39.579Z,84.40
2019-05-28T20:14:45.058Z,83.90
2019-05-28T20:17:20.057Z,83.70
2019-05-28T20:19:57.434Z,84.00
2019-05-28T20:22:40.701Z,83.50
2019-05-28T20:25:17.562Z,84.00
2019-05-28T20:31:21.494Z,83.20
2019-05-28T20:33:59.065Z,83.70
2019-05-28T20:40:15.053Z,84.30
2019-05-28T20:46:17.492Z,84.60
2019-05-28T20:52:34.058Z,85.20
2019-05-28T20:55:10.058Z,84.40
2019-05-28T20:57:44.060Z,83.80
2019-05-28T21:04:00.608Z,83.90
2019-05-28T21:10:18.087Z,83.10
2019-05-28T21:12:54.826Z,82.80
2019-05-28T21:15:30.080Z,82.70
2019-05-28T21:21:45.091Z,83.40
2019-05-28T21:28:09.573Z,84.10
2019-05-28T21:34:36.641Z,83.90
2019-05-28T21:37:11.090Z,83.00
2019-05-28T21:39:49.577Z,82.60
2019-05-28T21:45:24.084Z,82.40
2019-05-28T21:51:54.633Z,83.50
2019-05-28T21:54:30.085Z,83.20
2019-05-28T21:57:06.094Z,83.70
2019-05-28T21:59:43.353Z,84.00
2019-05-28T22:02:19.081Z,84.10
2019-05-28T22:04:53.081Z,84.20
2019-05-28T22:07:28.085Z,85.00
2019-05-28T22:10:06.560Z,85.10
2019-05-28T22:12:47.085Z,84.60
2019-05-28T22:15:27.687Z,84.30
2019-05-28T22:18:05.587Z,84.30
2019-05-28T22:20:43.109Z,84.70
2019-05-28T22:23:26.087Z,85.20
2019-05-28T22:26:04.907Z,84.70
2019-05-28T22:28:46.611Z,84.90
2019-05-28T22:31:28.408Z,85.20
2019-05-28T22:34:15.729Z,84.10
2019-05-28T22:40:42.093Z,83.30
2019-05-28T22:43:31.160Z,83.00
2019-05-28T22:45:59.212Z,83.00
2019-05-28T22:48:34.114Z,83.20
2019-05-28T22:51:12.562Z,83.30
2019-05-28T22:57:25.087Z,83.60
2019-05-28T23:03:42.739Z,83.40
2019-05-28T23:06:24.545Z,83.70
2019-05-28T23:08:59.768Z,83.70
2019-05-28T23:11:36.116Z,83.60
2019-05-28T23:14:13.521Z,83.50
2019-05-28T23:16:54.700Z,83.40
2019-05-28T23:19:36.900Z,83.50
2019-05-28T23:22:17.467Z,83.40
2019-05-28T23:25:03.197Z,83.30
2019-05-28T23:27:40.117Z,83.40
2019-05-28T23:30:24.540Z,83.60
2019-05-28T23:32:54.119Z,83.60
2019-05-28T23:35:30.122Z,83.70
2019-05-28T23:38:06.707Z,84.00
2019-05-28T23:40:44.611Z,84.20
2019-05-28T23:43:20.671Z,84.10
2019-05-28T23:45:56.728Z,84.70
2019-05-28T23:48:33.400Z,85.00
2019-05-28T23:51:10.687Z,84.70
2019-05-28T23:53:46.959Z,84.90
2019-05-28T23:56:28.237Z,85.10
2019-05-28T23:59:02.545Z,85.20
